Time;durP1;ratioP1;P1;durP2;ratioP2;P2;SDS_P1;SDS_P2;PMS_P1;PMS_P2;Temp;Humidity;BMP_temperature;BMP_pressure;BME280_temperature;BME280_humidity;BME280_pressure;Samples;Min_cycle;Max_cycle;Signal;HPM_P1;HPM_P2
2023/09/21 00:01:03;;;;;;;4.70;1.40;;;17.80;8.20;;;;;;5101202;28;20400;-70
2023/09/21 00:03:34;;;;;;;3.15;1.30;;;17.80;8.20;;;;;;5107440;28;20494;-70
2023/09/21 00:06:00;;;;;;;4.35;1.70;;;17.80;8.10;;;;;;5108334;28;20524;-70
2023/09/21 00:08:26;;;;;;;4.28;1.55;;;17.80;8.00;;;;;;5108368;28;20465;-70
2023/09/21 00:10:53;;;;;;;4.85;1.60;;;17.80;8.20;;;;;;5108379;28;20709;-70
2023/09/21 00:13:20;;;;;;;3.40;1.63;;;17.80;7.80;;;;;;5107111;28;20892;-70
2023/09/21 00:15:47;;;;;;;4.30;1.38;;;17.80;7.60;;;;;;5094322;28;20497;-70
2023/09/21 00:18:14;;;;;;;4.50;1.75;;;17.80;7.90;;;;;;5108599;28;20483;-70
2023/09/21 00:20:43;;;;;;;4.80;1.50;;;17.80;7.80;;;;;;5076061;28;20596;-70
2023/09/21 00:23:09;;;;;;;6.07;1.83;;;17.80;7.90;;;;;;5094845;28;20410;-70
2023/09/21 00:25:38;;;;;;;4.60;1.60;;;17.80;7.80;;;;;;5106292;28;21112;-70
2023/09/21 00:28:12;;;;;;;4.10;1.60;;;17.70;8.00;;;;;;5106598;28;20439;-70
2023/09/21 00:30:41;;;;;;;3.28;1.30;;;17.70;8.20;;;;;;5073521;28;20908;-70
2023/09/21 00:33:07;;;;;;;4.00;1.52;;;17.70;8.50;;;;;;5097025;28;20436;-70
2023/09/21 00:35:39;;;;;;;4.72;1.60;;;17.70;8.90;;;;;;5094774;28;20397;-70
2023/09/21 00:38:09;;;;;;;4.25;1.55;;;17.70;8.60;;;;;;5097976;28;20405;-70
2023/09/21 00:40:38;;;;;;;5.13;1.70;;;17.70;8.90;;;;;;5101963;28;20408;-70
2023/09/21 00:43:06;;;;;;;3.85;1.83;;;17.70;8.80;;;;;;5088946;28;20398;-70
2023/09/21 00:45:36;;;;;;;3.60;1.48;;;17.70;8.90;;;;;;5093259;28;20939;-70
2023/09/21 00:48:03;;;;;;;7.03;1.73;;;17.70;9.10;;;;;;5108895;28;20805;-70
2023/09/21 00:50:30;;;;;;;4.90;1.70;;;17.60;9.20;;;;;;5072815;28;20402;-70
2023/09/21 00:52:56;;;;;;;5.05;2.00;;;17.60;9.00;;;;;;5089040;28;20405;-70
2023/09/21 00:55:30;;;;;;;3.45;1.50;;;17.60;9.20;;;;;;5084065;28;20417;-70
2023/09/21 00:57:59;;;;;;;4.43;1.80;;;17.70;9.10;;;;;;5089154;28;21086;-70
2023/09/21 01:00:27;;;;;;;4.65;1.90;;;17.60;9.10;;;;;;5099876;28;20439;-70
2023/09/21 01:02:54;;;;;;;5.45;1.70;;;17.70;8.50;;;;;;5100630;28;20400;-70
2023/09/21 01:05:21;;;;;;;5.32;1.90;;;17.70;8.20;;;;;;5108363;28;20448;-70
2023/09/21 01:07:50;;;;;;;4.03;1.55;;;17.80;7.30;;;;;;5105856;28;20743;-71
2023/09/21 01:10:23;;;;;;;6.82;1.85;;;17.80;7.10;;;;;;5092775;28;20400;-70
2023/09/21 01:12:51;;;;;;;3.95;1.67;;;17.80;6.80;;;;;;5098461;28;20477;-70
2023/09/21 01:15:17;;;;;;;3.90;1.70;;;17.80;7.20;;;;;;5095442;28;20894;-70
2023/09/21 01:17:46;;;;;;;4.40;1.90;;;17.80;7.30;;;;;;5100246;28;20398;-70
2023/09/21 01:20:25;;;;;;;4.00;1.83;;;17.70;7.10;;;;;;5097384;28;20401;-70
2023/09/21 01:23:00;;;;;;;5.57;1.90;;;17.80;7.70;;;;;;5087715;28;20445;-69
2023/09/21 01:25:27;;;;;;;4.63;1.80;;;17.80;6.80;;;;;;5069887;28;20946;-70
2023/09/21 01:27:53;;;;;;;3.85;1.50;;;17.80;6.90;;;;;;5098350;28;20410;-70
2023/09/21 01:30:18;;;;;;;4.35;1.88;;;17.70;6.40;;;;;;5093042;28;20402;-70
2023/09/21 01:32:45;;;;;;;4.80;1.87;;;17.80;6.30;;;;;;5096560;28;20923;-70
2023/09/21 01:35:12;;;;;;;4.20;1.52;;;17.70;6.30;;;;;;5069616;28;20454;-69
2023/09/21 01:37:38;;;;;;;5.85;1.73;;;17.70;6.20;;;;;;5108102;28;20407;-69
2023/09/21 01:40:17;;;;;;;4.82;1.65;;;17.70;5.60;;;;;;5093199;28;20416;-69
2023/09/21 01:42:48;;;;;;;6.57;1.57;;;17.80;5.20;;;;;;5088688;28;20398;-67
2023/09/21 01:45:14;;;;;;;3.40;1.60;;;17.80;4.90;;;;;;5087935;28;20883;-69
2023/09/21 01:47:40;;;;;;;3.63;1.50;;;17.90;4.50;;;;;;5098419;28;20427;-70
2023/09/21 01:50:06;;;;;;;4.55;1.80;;;17.80;4.00;;;;;;5104153;28;20464;-70
2023/09/21 01:52:34;;;;;;;3.40;1.48;;;17.80;3.70;;;;;;5087894;28;20409;-71
2023/09/21 01:55:05;;;;;;;4.63;1.50;;;17.80;3.00;;;;;;5087788;28;20486;-71
2023/09/21 01:57:32;;;;;;;3.10;1.50;;;17.90;2.90;;;;;;5087997;28;21316;-71
2023/09/21 01:59:58;;;;;;;3.45;1.50;;;17.90;2.60;;;;;;5073889;28;20404;-71
2023/09/21 02:02:23;;;;;;;2.75;1.50;;;17.90;2.10;;;;;;5096275;28;20397;-70
2023/09/21 02:04:49;;;;;;;4.57;2.00;;;17.90;2.00;;;;;;5103013;28;20920;-70
2023/09/21 02:07:15;;;;;;;3.20;1.33;;;18.00;2.10;;;;;;5097871;28;20487;-69
2023/09/21 02:09:41;;;;;;;3.97;1.40;;;17.90;1.70;;;;;;5097015;28;20535;-69
2023/09/21 02:12:07;;;;;;;3.50;1.43;;;18.00;1.30;;;;;;5095763;28;20477;-70
2023/09/21 02:14:32;;;;;;;3.55;1.45;;;18.00;1.20;;;;;;5101258;28;20401;-69
2023/09/21 02:16:58;;;;;;;3.23;1.60;;;17.90;1.10;;;;;;5091756;28;20405;-69
2023/09/21 02:19:24;;;;;;;2.97;1.15;;;18.00;1.20;;;;;;5071936;28;20454;-69
2023/09/21 02:21:50;;;;;;;4.03;1.77;;;17.90;1.00;;;;;;5104857;28;20405;-70
2023/09/21 02:24:15;;;;;;;3.00;1.45;;;18.00;1.00;;;;;;5096861;28;20406;-69
2023/09/21 02:26:42;;;;;;;3.40;1.25;;;17.90;1.00;;;;;;5097090;28;20438;-70
2023/09/21 02:29:12;;;;;;;3.50;1.37;;;18.00;1.00;;;;;;5097836;28;20418;-69
2023/09/21 02:31:38;;;;;;;4.10;1.58;;;17.90;1.00;;;;;;5087502;28;20976;-70
2023/09/21 02:34:04;;;;;;;4.65;1.50;;;17.90;1.10;;;;;;5083419;28;20906;-70
2023/09/21 02:36:31;;;;;;;5.73;1.60;;;17.90;1.10;;;;;;5104483;28;20389;-69
2023/09/21 02:38:57;;;;;;;3.08;1.30;;;17.80;1.40;;;;;;5107963;28;21023;-69
2023/09/21 02:41:23;;;;;;;4.25;1.63;;;17.80;2.00;;;;;;5097331;28;20489;-70
2023/09/21 02:43:49;;;;;;;4.63;1.60;;;17.80;2.60;;;;;;5101661;28;20491;-70
2023/09/21 02:46:15;;;;;;;4.70;1.63;;;17.70;2.70;;;;;;5093869;28;20437;-70
2023/09/21 02:48:40;;;;;;;5.40;1.60;;;17.70;3.10;;;;;;5102006;28;20416;-70
2023/09/21 02:51:06;;;;;;;2.83;1.23;;;17.70;3.40;;;;;;5088504;28;20406;-70
2023/09/21 02:53:32;;;;;;;3.00;1.30;;;17.70;3.30;;;;;;5098571;28;20397;-69
2023/09/21 02:55:59;;;;;;;3.25;1.30;;;17.70;3.20;;;;;;5103907;28;20409;-70
2023/09/21 02:58:26;;;;;;;2.50;1.10;;;17.70;3.30;;;;;;5100707;28;20396;-70
2023/09/21 03:00:52;;;;;;;3.87;1.40;;;17.70;3.30;;;;;;5094389;28;20498;-70
2023/09/21 03:03:22;;;;;;;3.20;1.20;;;17.70;3.60;;;;;;5100872;28;20615;-70
2023/09/21 03:05:49;;;;;;;2.83;1.20;;;17.60;3.90;;;;;;5104342;28;20423;-70
2023/09/21 03:08:16;;;;;;;4.38;1.85;;;17.60;3.60;;;;;;5106172;28;20396;-70
2023/09/21 03:10:44;;;;;;;3.10;1.27;;;17.70;3.60;;;;;;5091064;28;20390;-70
2023/09/21 03:13:17;;;;;;;3.83;1.63;;;17.60;3.60;;;;;;5072526;28;20410;-70
2023/09/21 03:15:47;;;;;;;3.33;1.30;;;17.60;4.00;;;;;;5091308;28;20405;-70
2023/09/21 03:18:14;;;;;;;3.83;1.40;;;17.60;4.20;;;;;;5100009;28;20392;-71
2023/09/21 03:20:40;;;;;;;4.18;1.27;;;17.60;4.30;;;;;;5105663;28;20404;-71
2023/09/21 03:23:09;;;;;;;3.97;1.40;;;17.60;4.50;;;;;;5104138;28;20413;-70
2023/09/21 03:25:44;;;;;;;3.60;1.50;;;17.60;4.60;;;;;;5100040;28;20441;-71
2023/09/21 03:28:14;;;;;;;3.22;1.40;;;17.60;5.30;;;;;;5090565;28;20415;-70
2023/09/21 03:30:50;;;;;;;5.10;1.38;;;17.60;5.40;;;;;;5090909;28;20430;-71
2023/09/21 03:33:20;;;;;;;3.08;1.42;;;17.60;5.60;;;;;;5091495;28;20741;-70
2023/09/21 03:35:46;;;;;;;3.30;1.45;;;17.50;5.80;;;;;;5106548;28;20483;-70
2023/09/21 03:38:18;;;;;;;4.07;1.15;;;17.50;5.90;;;;;;5102053;28;20529;-70
2023/09/21 03:40:46;;;;;;;2.20;1.30;;;17.50;6.40;;;;;;5088112;28;20409;-70
2023/09/21 03:43:13;;;;;;;2.70;1.30;;;17.50;6.50;;;;;;5105691;28;20766;-70
2023/09/21 03:45:41;;;;;;;3.72;1.40;;;17.50;6.80;;;;;;5104183;28;20415;-70
2023/09/21 03:48:08;;;;;;;3.38;1.40;;;17.40;7.10;;;;;;5094491;28;20783;-70
2023/09/21 03:50:35;;;;;;;6.47;1.58;;;17.40;7.50;;;;;;5109436;28;20389;-70
2023/09/21 03:53:04;;;;;;;3.33;1.30;;;17.40;8.40;;;;;;5083013;28;20578;-69
2023/09/21 03:55:30;;;;;;;3.47;1.23;;;17.40;8.80;;;;;;5103180;28;20396;-70
2023/09/21 03:57:55;;;;;;;4.15;1.30;;;17.40;9.00;;;;;;5103343;28;20398;-71
2023/09/21 04:02:54;;;;;;;4.03;1.33;;;17.30;8.90;;;;;;5107815;28;20408;-71
2023/09/21 04:05:19;;;;;;;3.28;1.40;;;17.30;9.50;;;;;;5108401;28;20404;-71
2023/09/21 04:07:49;;;;;;;4.00;1.40;;;17.30;9.20;;;;;;5081352;28;20776;-70
2023/09/21 04:10:15;;;;;;;3.08;1.35;;;17.30;10.20;;;;;;5089548;28;20477;-70
2023/09/21 04:12:47;;;;;;;3.05;1.48;;;17.20;10.50;;;;;;5101643;28;21059;-70
2023/09/21 04:15:13;;;;;;;4.35;1.50;;;17.30;10.70;;;;;;5102095;28;20400;-70
2023/09/21 04:17:39;;;;;;;3.40;1.50;;;17.20;10.90;;;;;;5089311;28;20469;-70
2023/09/21 04:20:12;;;;;;;3.65;1.48;;;17.20;11.10;;;;;;5102538;28;20403;-71
2023/09/21 04:22:39;;;;;;;4.63;1.55;;;17.20;11.30;;;;;;5079272;28;20426;-70
2023/09/21 04:25:09;;;;;;;2.97;1.20;;;17.20;11.70;;;;;;5093955;28;20434;-70
2023/09/21 04:27:39;;;;;;;3.97;1.50;;;17.20;11.80;;;;;;5098041;28;20404;-70
2023/09/21 04:30:16;;;;;;;3.97;1.58;;;17.20;11.80;;;;;;5092550;28;20409;-71
2023/09/21 04:32:46;;;;;;;4.15;1.40;;;17.20;12.20;;;;;;5094363;28;20414;-71
2023/09/21 04:35:17;;;;;;;3.72;1.30;;;17.20;12.40;;;;;;5104428;28;20475;-71
2023/09/21 04:37:44;;;;;;;2.30;1.15;;;17.10;12.80;;;;;;5094102;28;20471;-71
2023/09/21 04:40:11;;;;;;;2.63;1.40;;;17.20;13.00;;;;;;5104465;28;20392;-71
2023/09/21 04:42:40;;;;;;;5.93;1.67;;;17.10;13.30;;;;;;5095028;28;20398;-71
2023/09/21 04:45:11;;;;;;;2.47;1.60;;;17.10;12.90;;;;;;5095313;28;20911;-71
2023/09/21 04:47:40;;;;;;;3.90;1.63;;;17.10;13.10;;;;;;5101284;28;20421;-71
2023/09/21 04:50:09;;;;;;;3.28;1.42;;;17.00;13.60;;;;;;5097873;28;20439;-71
2023/09/21 04:52:35;;;;;;;4.67;1.70;;;17.10;14.00;;;;;;5098025;28;20455;-71
2023/09/21 04:55:03;;;;;;;3.17;1.30;;;17.00;14.20;;;;;;5105257;28;20450;-71
2023/09/21 04:57:30;;;;;;;3.75;1.50;;;17.00;14.10;;;;;;5092319;28;20419;-71
2023/09/21 04:59:57;;;;;;;3.28;1.45;;;17.00;14.50;;;;;;5104845;28;20400;-71
2023/09/21 05:02:23;;;;;;;3.83;1.55;;;17.00;14.10;;;;;;5089587;28;20443;-71
2023/09/21 05:04:50;;;;;;;2.65;1.20;;;17.00;14.00;;;;;;5096150;28;20463;-71
2023/09/21 05:07:17;;;;;;;3.88;1.30;;;17.10;13.90;;;;;;5090654;28;20422;-69
2023/09/21 05:09:46;;;;;;;3.55;1.48;;;17.10;13.70;;;;;;5104991;28;20500;-70
2023/09/21 05:12:18;;;;;;;4.70;1.58;;;17.10;13.60;;;;;;5099694;28;20394;-70
2023/09/21 05:14:47;;;;;;;3.40;1.60;;;17.10;13.70;;;;;;5095582;28;20462;-69
2023/09/21 05:17:17;;;;;;;3.03;1.40;;;17.10;14.20;;;;;;5087270;28;20431;-70
2023/09/21 05:19:43;;;;;;;3.63;1.40;;;17.00;14.00;;;;;;5089343;28;20408;-69
2023/09/21 05:22:09;;;;;;;3.63;1.42;;;17.00;13.90;;;;;;5098151;28;20429;-70
2023/09/21 05:24:36;;;;;;;3.33;1.45;;;17.00;13.90;;;;;;5074971;28;20464;-71
2023/09/21 05:27:02;;;;;;;2.45;1.30;;;17.00;14.00;;;;;;5093446;28;20424;-71
2023/09/21 05:29:28;;;;;;;3.38;1.42;;;17.00;14.40;;;;;;5095086;28;20490;-71
2023/09/21 05:31:54;;;;;;;3.70;1.52;;;17.00;14.40;;;;;;5090146;28;20805;-69
2023/09/21 05:34:20;;;;;;;4.25;1.45;;;17.10;15.00;;;;;;5088419;28;20925;-69
2023/09/21 05:36:47;;;;;;;4.47;1.63;;;17.00;14.80;;;;;;5103815;28;20399;-69
2023/09/21 05:39:19;;;;;;;3.90;1.60;;;17.00;15.10;;;;;;5095708;28;20412;-69
2023/09/21 05:41:46;;;;;;;3.35;1.42;;;17.00;15.40;;;;;;5095748;28;20749;-69
2023/09/21 05:44:12;;;;;;;3.53;1.40;;;17.00;15.60;;;;;;5100422;28;20406;-68
2023/09/21 05:46:40;;;;;;;3.90;1.58;;;17.00;15.60;;;;;;5096383;28;20424;-68
2023/09/21 05:49:09;;;;;;;4.00;1.40;;;17.10;15.80;;;;;;5095524;28;20397;-70
2023/09/21 05:51:39;;;;;;;2.50;1.70;;;17.10;15.60;;;;;;5075929;28;21115;-71
2023/09/21 05:54:05;;;;;;;5.15;1.38;;;17.20;15.80;;;;;;5092425;28;20390;-70
2023/09/21 05:56:35;;;;;;;3.60;1.58;;;17.20;15.60;;;;;;5093644;28;20916;-69
2023/09/21 05:59:03;;;;;;;3.47;1.48;;;17.30;15.50;;;;;;5083871;28;20442;-69
2023/09/21 06:01:32;;;;;;;3.50;1.30;;;17.40;15.70;;;;;;5100481;28;20752;-70
2023/09/21 06:03:59;;;;;;;4.53;1.23;;;17.40;15.20;;;;;;5083983;28;20498;-70
2023/09/21 06:06:28;;;;;;;3.00;1.30;;;17.50;15.20;;;;;;5093338;28;20858;-70
2023/09/21 06:08:56;;;;;;;5.35;1.75;;;17.60;14.90;;;;;;5080613;28;20471;-70
2023/09/21 06:11:22;;;;;;;2.72;1.23;;;17.60;14.20;;;;;;5100279;28;20539;-70
2023/09/21 06:13:48;;;;;;;4.70;1.60;;;17.70;13.20;;;;;;5099803;28;20423;-70
2023/09/21 06:16:14;;;;;;;3.85;1.38;;;17.70;12.70;;;;;;5098529;28;20759;-70
2023/09/21 06:18:41;;;;;;;4.63;1.30;;;17.70;12.70;;;;;;5091787;28;20398;-70
2023/09/21 06:21:06;;;;;;;3.47;1.40;;;17.80;12.20;;;;;;5090938;28;20522;-70
2023/09/21 06:23:32;;;;;;;4.20;1.37;;;17.80;11.90;;;;;;5101043;28;20483;-71
2023/09/21 06:25:59;;;;;;;3.25;1.25;;;17.80;12.00;;;;;;5106574;28;20427;-71
2023/09/21 06:28:24;;;;;;;4.38;1.40;;;17.80;11.10;;;;;;5100319;28;20903;-71
2023/09/21 06:30:51;;;;;;;3.80;1.30;;;17.90;11.20;;;;;;5080533;28;20473;-71
2023/09/21 06:33:18;;;;;;;3.55;1.35;;;17.90;11.20;;;;;;5099764;28;20513;-71
2023/09/21 06:35:44;;;;;;;3.38;1.23;;;17.90;11.00;;;;;;5077834;28;20441;-71
2023/09/21 06:38:09;;;;;;;3.57;1.37;;;17.90;10.50;;;;;;5097185;28;20422;-71
2023/09/21 06:40:38;;;;;;;2.92;1.05;;;18.00;10.70;;;;;;5104808;28;20425;-71
2023/09/21 06:43:07;;;;;;;5.13;1.42;;;18.00;10.10;;;;;;5104587;28;20392;-71
2023/09/21 06:45:34;;;;;;;5.13;1.50;;;18.00;10.40;;;;;;5098806;28;20909;-71
2023/09/21 06:48:01;;;;;;;4.85;1.40;;;18.10;10.30;;;;;;5098916;28;20479;-71
2023/09/21 06:50:27;;;;;;;3.03;1.30;;;18.00;9.70;;;;;;5084551;28;20397;-71
2023/09/21 06:52:53;;;;;;;4.37;1.50;;;18.10;9.30;;;;;;5090910;28;20481;-71
2023/09/21 06:55:19;;;;;;;3.30;1.27;;;18.10;8.70;;;;;;5096727;28;20482;-71
2023/09/21 06:57:44;;;;;;;2.95;1.42;;;18.20;8.60;;;;;;5090999;28;20397;-71
2023/09/21 07:00:10;;;;;;;2.63;1.30;;;18.20;8.10;;;;;;5104149;28;20511;-71
2023/09/21 07:02:36;;;;;;;4.07;1.55;;;18.20;7.80;;;;;;5103034;28;20430;-71
2023/09/21 07:05:02;;;;;;;3.63;1.80;;;18.20;6.50;;;;;;5091965;28;20440;-71
2023/09/21 07:07:29;;;;;;;3.20;1.40;;;18.30;6.30;;;;;;5096565;28;20425;-71
2023/09/21 07:09:55;;;;;;;3.40;1.33;;;18.30;7.10;;;;;;5072213;28;20897;-71
2023/09/21 07:12:23;;;;;;;4.07;1.30;;;18.30;6.00;;;;;;5097307;28;20408;-71
2023/09/21 07:14:49;;;;;;;4.72;1.50;;;18.40;6.10;;;;;;5083648;28;20397;-71
2023/09/21 07:17:16;;;;;;;3.13;1.50;;;18.40;5.90;;;;;;5093801;28;20406;-70
2023/09/21 07:19:42;;;;;;;5.33;1.77;;;18.40;5.50;;;;;;5093680;28;20830;-71
2023/09/21 07:22:08;;;;;;;4.70;1.33;;;18.40;5.30;;;;;;5103552;28;20433;-70
2023/09/21 07:24:34;;;;;;;3.22;1.40;;;18.40;5.30;;;;;;5093381;28;20434;-71
2023/09/21 07:27:00;;;;;;;4.00;1.37;;;18.40;5.00;;;;;;5102613;28;20416;-71
2023/09/21 07:29:26;;;;;;;4.68;1.65;;;18.40;4.90;;;;;;5110164;28;20457;-71
2023/09/21 07:31:52;;;;;;;3.17;1.50;;;18.40;4.90;;;;;;5096912;28;20471;-71
2023/09/21 07:34:19;;;;;;;4.15;1.58;;;18.40;5.00;;;;;;5105245;28;20396;-71
2023/09/21 07:36:47;;;;;;;3.03;1.50;;;18.50;5.50;;;;;;5093203;28;20394;-70
2023/09/21 07:39:14;;;;;;;4.45;1.63;;;18.50;6.30;;;;;;5092612;28;20394;-69
2023/09/21 07:41:40;;;;;;;3.15;1.20;;;18.50;7.70;;;;;;5104843;28;20477;-69
2023/09/21 07:44:10;;;;;;;3.60;1.55;;;18.50;8.90;;;;;;5090244;28;20755;-69
2023/09/21 07:46:36;;;;;;;4.07;1.77;;;18.50;10.40;;;;;;5085929;28;20790;-70
2023/09/21 07:49:04;;;;;;;4.95;1.70;;;18.60;10.80;;;;;;5095590;28;20402;-70
2023/09/21 07:51:31;;;;;;;4.53;1.67;;;18.60;12.10;;;;;;5095927;28;20392;-70
2023/09/21 07:53:57;;;;;;;2.80;1.53;;;18.50;13.10;;;;;;5084135;28;20414;-70
2023/09/21 07:56:23;;;;;;;3.60;1.60;;;18.50;13.30;;;;;;5098056;28;20396;-70
2023/09/21 07:58:49;;;;;;;4.35;1.75;;;18.60;14.20;;;;;;5095394;28;20406;-70
2023/09/21 08:01:14;;;;;;;6.75;2.00;;;18.60;15.10;;;;;;5082680;28;20596;-70
2023/09/21 08:03:40;;;;;;;4.85;1.77;;;18.60;16.70;;;;;;5098862;28;20551;-70
2023/09/21 08:06:05;;;;;;;2.73;1.43;;;18.60;17.10;;;;;;5098267;28;20433;-70
2023/09/21 08:08:31;;;;;;;4.43;1.57;;;18.70;17.40;;;;;;5077060;28;20463;-70
2023/09/21 08:10:56;;;;;;;3.03;1.67;;;18.70;18.20;;;;;;5099494;28;20400;-70
2023/09/21 08:13:25;;;;;;;4.00;1.90;;;18.70;18.30;;;;;;5094513;28;20766;-70
2023/09/21 08:15:52;;;;;;;4.88;1.50;;;18.70;18.40;;;;;;5084544;28;20409;-70
2023/09/21 08:18:18;;;;;;;3.90;1.70;;;18.80;19.40;;;;;;5097915;28;20404;-70
2023/09/21 08:20:44;;;;;;;3.80;1.77;;;18.80;19.00;;;;;;5102069;28;20493;-70
2023/09/21 08:23:10;;;;;;;4.45;1.80;;;18.80;19.40;;;;;;5092753;28;20858;-70
2023/09/21 08:25:37;;;;;;;3.85;1.70;;;18.90;20.00;;;;;;5088982;28;20463;-70
2023/09/21 08:28:04;;;;;;;3.40;1.63;;;18.90;19.20;;;;;;5098159;28;20400;-70
2023/09/21 08:30:32;;;;;;;3.92;1.58;;;18.90;19.30;;;;;;5102741;28;20479;-70
2023/09/21 08:32:58;;;;;;;4.53;1.65;;;18.90;19.60;;;;;;5092632;28;21034;-69
2023/09/21 08:35:25;;;;;;;5.63;1.90;;;18.90;21.00;;;;;;5101601;28;20550;-70
2023/09/21 08:37:51;;;;;;;5.57;1.83;;;18.90;20.90;;;;;;5100229;28;20530;-70
2023/09/21 08:40:18;;;;;;;3.97;1.83;;;18.90;20.80;;;;;;5088600;28;20517;-70
2023/09/21 08:42:46;;;;;;;4.35;1.70;;;18.90;21.10;;;;;;5093390;28;20926;-70
2023/09/21 08:45:13;;;;;;;2.83;1.52;;;18.90;21.50;;;;;;5093513;28;20390;-70
2023/09/21 08:47:40;;;;;;;5.20;2.00;;;18.90;21.80;;;;;;5074522;28;20944;-70
2023/09/21 08:50:07;;;;;;;4.47;1.88;;;18.90;22.30;;;;;;5097854;28;20402;-70
2023/09/21 08:52:34;;;;;;;3.17;1.75;;;18.80;23.00;;;;;;5096500;28;20455;-70
2023/09/21 08:55:00;;;;;;;2.90;1.65;;;18.90;24.20;;;;;;5088290;28;20406;-70
2023/09/21 08:57:25;;;;;;;4.32;1.80;;;18.90;24.90;;;;;;5088060;28;20481;-70
2023/09/21 08:59:55;;;;;;;4.73;1.80;;;18.90;25.30;;;;;;5088818;28;20516;-70
2023/09/21 09:02:23;;;;;;;5.20;1.80;;;18.90;25.20;;;;;;5088313;28;20401;-70
2023/09/21 09:04:50;;;;;;;3.55;1.65;;;18.90;25.80;;;;;;5088453;28;20394;-70
2023/09/21 09:07:18;;;;;;;4.10;2.20;;;18.90;26.50;;;;;;5088047;28;20432;-70
2023/09/21 09:09:46;;;;;;;3.95;1.80;;;18.90;27.30;;;;;;5088990;28;20637;-70
2023/09/21 09:12:22;;;;;;;4.10;2.10;;;18.80;27.90;;;;;;5096394;28;20546;-70
2023/09/21 09:14:48;;;;;;;3.40;2.00;;;18.80;29.30;;;;;;5087905;28;20775;-70
2023/09/21 09:17:14;;;;;;;7.20;2.10;;;18.80;30.00;;;;;;5095697;28;20399;-70
2023/09/21 09:19:40;;;;;;;3.60;1.80;;;18.70;29.50;;;;;;5094177;28;21298;-70
2023/09/21 09:22:06;;;;;;;3.70;1.50;;;18.70;29.60;;;;;;5092329;28;20454;-70
2023/09/21 09:24:33;;;;;;;4.05;1.80;;;18.60;29.00;;;;;;5069211;28;20422;-70
2023/09/21 09:26:59;;;;;;;4.57;2.03;;;18.60;29.90;;;;;;5101230;28;20431;-70
2023/09/21 09:29:26;;;;;;;4.65;1.90;;;18.50;29.90;;;;;;5093714;28;20452;-70
2023/09/21 09:31:52;;;;;;;4.28;1.95;;;18.50;30.90;;;;;;5094291;28;20404;-70
2023/09/21 09:34:18;;;;;;;4.00;2.08;;;18.40;33.70;;;;;;5098244;28;20425;-70
2023/09/21 09:36:50;;;;;;;4.13;2.03;;;18.40;34.80;;;;;;5104129;28;20428;-70
2023/09/21 09:39:16;;;;;;;5.70;2.30;;;18.30;34.80;;;;;;5103015;28;20442;-70
2023/09/21 09:41:42;;;;;;;4.78;2.00;;;18.30;34.20;;;;;;5072638;28;20436;-70
2023/09/21 09:44:09;;;;;;;4.38;2.15;;;18.30;36.20;;;;;;5107430;28;21246;-70
2023/09/21 09:46:37;;;;;;;4.80;2.42;;;18.20;37.60;;;;;;5103336;28;20579;-70
2023/09/21 09:49:04;;;;;;;5.22;2.45;;;18.20;39.00;;;;;;5094191;28;20402;-70
2023/09/21 09:51:38;;;;;;;4.57;2.30;;;18.20;39.00;;;;;;5102165;28;20427;-70
2023/09/21 09:54:04;;;;;;;5.43;2.80;;;18.20;41.20;;;;;;5095861;28;20410;-70
2023/09/21 09:56:32;;;;;;;6.28;2.90;;;18.20;39.90;;;;;;5087367;28;20416;-70
2023/09/21 09:58:59;;;;;;;6.85;3.13;;;18.10;42.40;;;;;;5098767;28;20440;-70
2023/09/21 10:01:26;;;;;;;5.68;3.42;;;18.10;43.20;;;;;;5105258;28;20396;-70
2023/09/21 10:03:54;;;;;;;6.27;3.07;;;18.10;43.40;;;;;;5094257;28;20392;-70
2023/09/21 10:06:20;;;;;;;5.27;3.60;;;18.00;43.50;;;;;;5101744;28;20431;-70
2023/09/21 10:08:46;;;;;;;6.70;3.58;;;18.00;44.30;;;;;;5095522;28;20420;-70
2023/09/21 10:11:13;;;;;;;4.77;2.87;;;17.90;44.90;;;;;;5095230;28;20896;-70
2023/09/21 10:13:52;;;;;;;2.38;1.10;;;17.90;44.30;;;;;;5081903;28;20405;-70
2023/09/21 10:16:19;;;;;;;1.38;0.60;;;17.80;41.70;;;;;;5087229;28;20405;-70
2023/09/21 10:18:51;;;;;;;1.65;0.52;;;17.60;41.80;;;;;;5090316;28;20412;-70
2023/09/21 10:21:22;;;;;;;2.28;0.50;;;17.50;39.90;;;;;;5104031;28;20917;-70
2023/09/21 10:24:13;;;;;;;1.88;0.50;;;17.20;39.70;;;;;;5090908;28;20414;-70
2023/09/21 10:26:44;;;;;;;1.35;0.30;;;17.10;42.70;;;;;;5096442;28;20923;-70
2023/09/21 10:29:12;;;;;;;2.63;0.45;;;17.00;43.90;;;;;;5077616;28;20544;-70
2023/09/21 10:31:45;;;;;;;2.53;0.45;;;16.90;42.90;;;;;;5088676;28;20433;-70
2023/09/21 10:34:18;;;;;;;0.77;0.30;;;16.80;43.40;;;;;;5079865;28;20417;-70
2023/09/21 10:36:50;;;;;;;0.60;0.28;;;16.70;42.80;;;;;;5091007;28;20417;-69
2023/09/21 10:39:30;;;;;;;1.30;0.40;;;16.50;44.30;;;;;;5098338;28;20400;-71
2023/09/21 10:42:17;;;;;;;1.48;0.30;;;16.50;45.50;;;;;;5088234;28;20896;-69
2023/09/21 10:45:00;;;;;;;1.70;0.30;;;16.40;47.40;;;;;;5096263;28;20402;-69
2023/09/21 10:47:41;;;;;;;1.02;0.30;;;16.40;48.70;;;;;;5087334;28;20422;-70
2023/09/21 10:50:19;;;;;;;3.90;0.50;;;16.40;49.80;;;;;;5087059;28;20984;-69
2023/09/21 10:52:51;;;;;;;1.27;0.30;;;16.40;48.90;;;;;;5095667;28;20413;-69
2023/09/21 10:55:17;;;;;;;1.00;0.30;;;16.40;48.20;;;;;;5074747;28;20409;-69
2023/09/21 10:57:45;;;;;;;1.40;0.20;;;16.30;48.80;;;;;;5074250;28;20406;-70
2023/09/21 11:00:18;;;;;;;1.88;0.32;;;16.30;50.30;;;;;;5093906;28;20401;-70
2023/09/21 11:02:46;;;;;;;1.98;0.40;;;16.30;50.60;;;;;;5084716;28;20441;-69
2023/09/21 11:05:16;;;;;;;1.98;0.20;;;16.40;50.50;;;;;;5089875;28;20398;-69
2023/09/21 11:07:43;;;;;;;1.83;0.40;;;16.30;50.50;;;;;;5094544;28;20420;-69
2023/09/21 11:10:10;;;;;;;1.30;0.40;;;16.30;50.70;;;;;;5094213;28;20402;-69
2023/09/21 11:12:40;;;;;;;1.50;0.50;;;16.30;50.20;;;;;;5084524;28;20427;-69
2023/09/21 11:15:09;;;;;;;1.20;0.30;;;16.30;50.20;;;;;;5083436;28;20443;-69
2023/09/21 11:17:35;;;;;;;1.20;0.57;;;16.30;51.50;;;;;;5089359;28;20448;-69
2023/09/21 11:20:02;;;;;;;3.05;0.50;;;16.30;53.10;;;;;;5099497;28;20918;-69
2023/09/21 11:22:29;;;;;;;1.92;0.38;;;16.40;54.60;;;;;;5071763;28;20463;-69
2023/09/21 11:24:56;;;;;;;1.42;0.43;;;16.50;55.30;;;;;;5074702;28;20437;-69
2023/09/21 11:27:26;;;;;;;1.30;0.40;;;16.50;55.30;;;;;;5096079;28;20571;-69
2023/09/21 11:29:53;;;;;;;1.37;0.60;;;16.50;54.70;;;;;;5100596;28;20485;-69
2023/09/21 11:32:21;;;;;;;1.98;0.90;;;16.60;53.80;;;;;;5097265;28;21063;-70
2023/09/21 11:34:47;;;;;;;2.05;0.50;;;16.50;52.40;;;;;;5089854;28;20752;-69
2023/09/21 11:37:13;;;;;;;2.10;0.47;;;16.50;53.20;;;;;;5097301;28;20411;-69
2023/09/21 11:39:46;;;;;;;1.75;0.60;;;16.50;53.50;;;;;;5090463;28;20759;-69
2023/09/21 11:42:12;;;;;;;1.05;0.50;;;16.60;54.20;;;;;;5097188;28;20951;-70
2023/09/21 11:44:38;;;;;;;1.83;0.50;;;16.60;54.60;;;;;;5090149;28;20756;-69
2023/09/21 11:47:10;;;;;;;2.00;0.60;;;16.60;54.40;;;;;;5108743;28;20427;-69
2023/09/21 11:49:41;;;;;;;2.25;0.50;;;16.60;53.30;;;;;;5096879;28;20409;-69
2023/09/21 11:52:09;;;;;;;1.70;0.50;;;16.60;54.60;;;;;;5096849;28;20400;-69
2023/09/21 11:54:35;;;;;;;1.75;0.60;;;16.60;54.50;;;;;;5091131;28;20410;-69
2023/09/21 11:57:11;;;;;;;2.70;0.57;;;16.60;53.50;;;;;;5094363;28;20412;-69
2023/09/21 11:59:41;;;;;;;1.35;0.50;;;16.60;53.50;;;;;;5091649;28;20405;-69
2023/09/21 12:02:13;;;;;;;1.58;0.50;;;16.60;53.00;;;;;;5099279;28;20394;-69
2023/09/21 12:04:41;;;;;;;2.27;0.50;;;16.60;54.70;;;;;;5092609;28;20819;-69
2023/09/21 12:07:10;;;;;;;1.40;0.40;;;16.70;56.60;;;;;;5102069;28;20431;-69
2023/09/21 12:09:36;;;;;;;4.80;1.40;;;16.70;55.10;;;;;;5101381;28;21235;-69
2023/09/21 12:12:06;;;;;;;3.75;1.00;;;16.70;54.10;;;;;;5096756;28;20406;-69
2023/09/21 12:14:36;;;;;;;5.25;1.35;;;16.70;53.20;;;;;;5102480;28;20493;-69
2023/09/21 12:17:09;;;;;;;3.20;1.17;;;16.70;53.60;;;;;;5091654;28;20394;-69
2023/09/21 12:19:36;;;;;;;2.88;0.55;;;16.70;53.90;;;;;;5106241;28;21334;-69
2023/09/21 12:22:04;;;;;;;2.10;0.40;;;16.70;53.80;;;;;;5089010;28;20432;-69
2023/09/21 12:24:30;;;;;;;1.95;0.60;;;16.70;54.50;;;;;;5098388;28;20400;-69
2023/09/21 12:26:56;;;;;;;2.20;0.57;;;16.80;54.30;;;;;;5102611;28;20469;-69
2023/09/21 12:29:24;;;;;;;1.25;0.40;;;16.80;54.60;;;;;;5104767;28;20758;-69
2023/09/21 12:31:50;;;;;;;2.07;0.50;;;16.80;54.20;;;;;;5091956;28;20949;-69
2023/09/21 12:34:16;;;;;;;2.30;0.40;;;16.80;55.30;;;;;;5094764;28;20485;-69
2023/09/21 12:36:42;;;;;;;2.35;0.50;;;16.80;56.20;;;;;;5102198;28;20488;-70
2023/09/21 12:39:10;;;;;;;1.40;0.60;;;16.90;53.20;;;;;;5105357;28;20487;-69
2023/09/21 12:41:38;;;;;;;2.95;0.60;;;16.80;53.10;;;;;;5102069;28;20400;-69
2023/09/21 12:44:06;;;;;;;1.42;0.40;;;16.70;53.40;;;;;;5090032;28;20408;-69
2023/09/21 12:46:32;;;;;;;1.77;0.50;;;16.70;55.60;;;;;;5094713;28;20473;-69
2023/09/21 12:48:58;;;;;;;1.30;0.40;;;16.70;56.10;;;;;;5080810;28;20414;-69
2023/09/21 12:51:24;;;;;;;2.90;0.50;;;16.70;55.20;;;;;;5097173;28;20406;-69
2023/09/21 12:53:50;;;;;;;0.95;0.30;;;16.70;56.00;;;;;;5102586;28;20392;-69
2023/09/21 12:56:16;;;;;;;1.75;0.40;;;16.80;56.70;;;;;;5101073;28;20415;-69